M V_whaling City Exp — WDB8158 — position and weather

sailwx.info

Track history (hours):
 
Tides and Currents Weather Stations Pressure Air Temp Water Temp Dewpoint Dewpoint Depression Visibility Wind Speed Wind Dir Waves Ship Positions

M V_whaling City Exp

Owner: Champlin's Water Taxi, Inc., Block Island, RI. More information available from US FCC via Universal Licensing System.

Last reported at 2018-Feb-23 04:16 UTC. Time now 2018-Feb-23 12:42 UTC.
Position N 40°25' W 074°02'.

; draft 3.4 m.

Type: High speed craft. MMSI: 366953970.

Date/timePositionNaut miles runAvg speedWind from/ knotsBaromVisibWave heightAir tempDewpointWater temp
2018-Feb-23 04:16N 40°25' W 074°02'2 5.8
2018-Feb-23 03:56N 40°25' W 073°60'614.1
2018-Feb-23 03:30N 40°30' W 074°02'1224.0
2018-Feb-23 03:01N 40°42' W 074°00'3 5.8
2018-Feb-23 02:30N 40°45' W 073°58'1019.5
2018-Feb-23 02:00N 40°36' W 074°03'1114.5
2018-Feb-23 01:13N 40°25' W 073°60'0 0.1
2018-Feb-23 00:58N 40°25' W 073°60'0 0.0
2018-Feb-23 00:30N 40°25' W 073°60'0 0.0
2018-Feb-23 00:00N 40°25' W 073°60'0 0.0
2018-Feb-22 23:30N 40°25' W 073°60'2 3.8
2018-Feb-22 23:00N 40°25' W 074°02'1122.0
2018-Feb-22 22:30N 40°36' W 074°03'612.8
2018-Feb-22 22:00N 40°42' W 074°00'815.6
2018-Feb-22 21:29N 40°34' W 074°03'10 5.2
2018-Feb-22 19:36N 40°25' W 073°60'210.9
2018-Feb-22 19:25N 40°25' W 074°02'1023.3
2018-Feb-22 18:59N 40°35' W 074°03'816.4
2018-Feb-22 18:31N 40°43' W 073°59'4 8.5
2018-Feb-22 18:01N 40°39' W 074°02'1324.8
2018-Feb-22 17:28N 40°26' W 074°01'4 7.6
2018-Feb-22 17:00N 40°29' W 074°02'1224.9
2018-Feb-22 16:31N 40°42' W 074°01'4 7.5
2018-Feb-22 16:01N 40°44' W 073°58'816.6
2018-Feb-22 15:30N 40°37' W 074°03'1223.2
2018-Feb-22 15:00N 40°25' W 074°02'0 0.0
2018-Feb-22 14:30N 40°25' W 074°02'0 0.0
2018-Feb-22 13:57N 40°25' W 074°02'0 0.0
2018-Feb-22 13:30N 40°25' W 074°02'0 0.0
2018-Feb-22 04:19N 40°25' W 074°02'2 5.3
2018-Feb-22 03:58N 40°25' W 073°60'613.5
2018-Feb-22 03:30N 40°30' W 074°02'1223.6
2018-Feb-22 03:00N 40°42' W 074°00'3 5.7
2018-Feb-22 02:30N 40°44' W 073°58'1121.4
2018-Feb-22 02:00N 40°34' W 074°03'1010.8
2018-Feb-22 01:05N 40°25' W 073°60'112.7
2018-Feb-22 00:59N 40°25' W 074°01'1 2.5
2018-Feb-22 00:30N 40°25' W 073°60'0 0.0
2018-Feb-22 00:00N 40°25' W 073°60'0 0.0
2018-Feb-21 23:31N 40°25' W 073°60'2 3.7
2018-Feb-21 23:00N 40°25' W 074°02'1223.6
2018-Feb-21 22:30N 40°37' W 074°03'611.4
2018-Feb-21 22:01N 40°42' W 074°00'714.5
2018-Feb-21 21:30N 40°35' W 074°02'1120.5
2018-Feb-21 20:59N 40°25' W 073°60'0 0.0
2018-Feb-21 20:30N 40°25' W 073°60'0 0.0
2018-Feb-21 19:59N 40°25' W 073°60'2 3.3
2018-Feb-21 19:30N 40°25' W 074°02'918.6
2018-Feb-21 19:00N 40°35' W 074°02'917.8
2018-Feb-21 18:31N 40°43' W 073°58'5 9.0
2018-Feb-21 18:00N 40°39' W 074°02'1223.9
2018-Feb-21 17:30N 40°27' W 074°01'3 5.4
2018-Feb-21 17:00N 40°30' W 074°02'1123.5
2018-Feb-21 16:30N 40°41' W 074°01'4 7.8
2018-Feb-21 16:01N 40°44' W 073°58'815.7
2018-Feb-21 15:30N 40°37' W 074°03'12 1.1
2018-Feb-21 04:17N 40°25' W 074°02'2 5.7
2018-Feb-21 03:58N 40°25' W 073°60'715.5
2018-Feb-21 03:30N 40°32' W 074°02'1121.7
2018-Feb-21 03:00N 40°42' W 074°00'3 6.1
2018-Feb-21 02:31N 40°45' W 073°58'1120.3
2018-Feb-21 01:59N 40°34' W 074°03'10 8.8
2018-Feb-21 00:50N 40°25' W 073°60'0 0.0
2018-Feb-21 00:29N 40°25' W 073°60'0 0.0
2018-Feb-20 23:53N 40°25' W 073°60'0 0.0
2018-Feb-20 23:30N 40°25' W 073°60'2 3.2
2018-Feb-20 22:56N 40°25' W 074°02'1225.7
2018-Feb-20 22:28N 40°37' W 074°03'511.1
2018-Feb-20 22:00N 40°42' W 074°00'714.1
2018-Feb-20 21:30N 40°35' W 074°02'1121.4
2018-Feb-20 21:00N 40°25' W 073°60'0 0.0
2018-Feb-20 20:30N 40°25' W 073°60'0 0.0
2018-Feb-20 19:59N 40°25' W 073°60'2 3.6
2018-Feb-20 19:28N 40°25' W 074°02'1022.0
2018-Feb-20 19:00N 40°35' W 074°03'816.2
2018-Feb-20 18:30N 40°43' W 073°58'4 8.3
2018-Feb-20 18:01N 40°40' W 074°03'1224.6
2018-Feb-20 17:30N 40°28' W 074°01'1 2.5
2018-Feb-20 17:01N 40°29' W 074°02'1224.8
2018-Feb-20 16:31N 40°41' W 074°02'4 8.5
2018-Feb-20 16:00N 40°44' W 073°58'816.6
2018-Feb-20 15:30N 40°37' W 074°03'1220.3
2018-Feb-20 14:56N 40°25' W 074°02'0 0.0
2018-Feb-20 14:27N 40°25' W 074°02'0 0.0
2018-Feb-19 20:21N 40°25' W 074°02'2 4.6
2018-Feb-19 19:57N 40°25' W 073°60'0 0.1
2018-Feb-19 19:29N 40°25' W 073°60'0 0.0
2018-Feb-19 18:59N 40°25' W 073°60'0 0.0
2018-Feb-19 18:30N 40°25' W 073°60'0 0.0
2018-Feb-19 18:00N 40°25' W 073°60'0 0.0
2018-Feb-19 17:29N 40°25' W 073°60'0 0.0
2018-Feb-19 17:00N 40°25' W 073°60'0 0.0
2018-Feb-19 16:29N 40°25' W 073°60'0 0.0
2018-Feb-19 16:00N 40°25' W 073°60'0 0.0
2018-Feb-19 15:30N 40°25' W 073°60'0 0.1
2018-Feb-19 15:00N 40°25' W 073°60'0 0.5
2018-Feb-19 14:29N 40°25' W 073°60'  
2018-Feb-17 04:07N 40°25' W 073°60'0 0.3
2018-Feb-17 04:00N 40°25' W 073°60'713.8
2018-Feb-17 03:30N 40°31' W 074°03'1223.4
2018-Feb-17 03:00N 40°42' W 074°00'1 2.6
2018-Feb-17 02:31N 40°42' W 073°59'1019.6
2018-Feb-17 02:00N 40°33' W 074°04'9 5.6
2018-Feb-17 00:19N 40°25' W 073°60'0 0.0
2018-Feb-16 23:52N 40°25' W 073°60'0 0.0
2018-Feb-16 23:19N 40°25' W 073°60'2 5.6
2018-Feb-16 22:57N 40°26' W 074°02'1125.6
2018-Feb-16 22:30N 40°37' W 074°03'611.1
2018-Feb-16 22:00N 40°42' W 074°00'713.9
2018-Feb-16 21:30N 40°35' W 074°02'11 6.1
2018-Feb-16 19:41N 40°25' W 073°60'2 8.4
2018-Feb-16 19:30N 40°25' W 074°02'1018.7
2018-Feb-16 18:58N 40°35' W 074°02'816.7
2018-Feb-16 18:31N 40°43' W 073°59'4 7.2
2018-Feb-16 18:01N 40°40' W 074°01'1223.7
2018-Feb-16 17:30N 40°27' W 074°01'0 0.9
2018-Feb-16 16:59N 40°28' W 074°01'1326.0
2018-Feb-16 16:30N 40°40' W 074°02'4 8.9
2018-Feb-16 16:00N 40°43' W 073°58'814.9
2018-Feb-16 15:30N 40°37' W 074°03'1122.8
2018-Feb-16 15:00N 40°25' W 074°02'0 0.0
2018-Feb-16 14:27N 40°25' W 074°02'0 0.0
2018-Feb-16 04:21N 40°25' W 074°02'2 4.5
2018-Feb-16 03:59N 40°25' W 073°60'713.7
2018-Feb-16 03:30N 40°31' W 074°02'1122.4
2018-Feb-16 03:00N 40°42' W 074°00'2 3.2
2018-Feb-16 02:31N 40°43' W 073°58'917.8
2018-Feb-16 02:00N 40°34' W 074°02'10 7.4
2018-Feb-16 00:40N 40°25' W 073°60'0 0.2
2018-Feb-16 00:30N 40°25' W 073°60'0 0.0
2018-Feb-16 00:00N 40°25' W 073°60'0 0.0
2018-Feb-15 23:30N 40°25' W 073°60'2 3.7
2018-Feb-15 23:00N 40°25' W 074°02'1224.1
2018-Feb-15 22:30N 40°37' W 074°03'510.9
2018-Feb-15 22:00N 40°42' W 074°00'916.9
2018-Feb-15 21:30N 40°34' W 074°02'918.9
2018-Feb-15 21:00N 40°25' W 073°60'0 0.0
2018-Feb-15 20:31N 40°25' W 073°60'0 0.0
2018-Feb-15 20:00N 40°25' W 073°60'1 2.9
2018-Feb-15 19:30N 40°25' W 074°01'1119.6
2018-Feb-15 18:57N 40°36' W 074°03'717.0
2018-Feb-15 18:31N 40°43' W 073°58'510.0
2018-Feb-15 18:01N 40°39' W 074°02'1222.8
2018-Feb-15 17:30N 40°27' W 074°01'0 0.9
2018-Feb-15 17:00N 40°28' W 074°01'1326.2
2018-Feb-15 16:31N 40°40' W 074°01'4 7.2
2018-Feb-15 16:01N 40°43' W 073°58'815.2
2018-Feb-15 15:30N 40°36' W 074°03'11 1.0
2018-Feb-15 04:14N 40°25' W 074°02'2 5.9
2018-Feb-15 03:55N 40°25' W 073°60'513.0
2018-Feb-15 03:30N 40°30' W 074°02'1225.3
2018-Feb-15 03:00N 40°42' W 074°00'2 3.8
2018-Feb-15 02:31N 40°43' W 073°58'1019.9
2018-Feb-15 01:59N 40°33' W 074°02'911.9
2018-Feb-15 01:15N 40°25' W 073°60'0 0.1
2018-Feb-15 00:59N 40°25' W 073°60'0 0.0
2018-Feb-15 00:29N 40°25' W 073°60'0 0.0
2018-Feb-14 23:59N 40°25' W 073°60'0 0.0
2018-Feb-14 23:29N 40°25' W 073°60'2 4.2
2018-Feb-14 22:59N 40°26' W 074°02'1124.3
2018-Feb-14 22:30N 40°38' W 074°03'510.2
2018-Feb-14 22:00N 40°42' W 074°00'1020.0
2018-Feb-14 21:30N 40°32' W 074°02'8 4.4
2018-Feb-14 19:44N 40°25' W 073°60'2 6.9
2018-Feb-14 19:30N 40°25' W 074°02'1019.5
2018-Feb-14 19:00N 40°35' W 074°02'817.1
2018-Feb-14 18:30N 40°43' W 073°58'5 9.3
2018-Feb-14 18:00N 40°39' W 074°02'1224.0
2018-Feb-14 17:30N 40°27' W 074°01'2 3.5
2018-Feb-14 17:00N 40°25' W 074°02'0 0.2
2018-Feb-14 15:44N 40°25' W 074°02'0 0.0
2018-Feb-14 15:29N 40°25' W 074°02'0 0.0
2018-Feb-14 14:57N 40°25' W 074°02'0 0.0
2018-Feb-14 14:15N 40°25' W 074°02'0 0.0
2018-Feb-14 13:52N 40°25' W 074°02'0 0.0
2018-Feb-14 13:30N 40°25' W 074°02'0 0.0
2018-Feb-14 04:25N 40°25' W 074°02'2 4.2
2018-Feb-14 03:59N 40°25' W 073°60'612.3
2018-Feb-14 03:30N 40°30' W 074°02'1224.1
2018-Feb-14 03:00N 40°42' W 074°00'1 2.8
2018-Feb-14 02:30N 40°43' W 073°59'917.1
2018-Feb-14 02:00N 40°35' W 074°02'1012.4
2018-Feb-14 01:11N 40°25' W 073°60'0 0.2
2018-Feb-14 00:59N 40°25' W 073°60'0 0.0
2018-Feb-14 00:30N 40°25' W 073°60'0 0.0
2018-Feb-14 00:00N 40°25' W 073°60'0 0.0
2018-Feb-13 23:30N 40°25' W 073°60'2 3.6
2018-Feb-13 23:00N 40°25' W 074°02'1224.1
2018-Feb-13 22:30N 40°37' W 074°03'510.6
2018-Feb-13 22:00N 40°42' W 074°00'1020.1
2018-Feb-13 21:30N 40°32' W 074°02'815.5
2018-Feb-13 21:00N 40°25' W 073°60'0 0.0
2018-Feb-13 20:30N 40°25' W 073°60'0 0.0
2018-Feb-13 20:00N 40°25' W 073°60'2 3.3
2018-Feb-13 19:30N 40°25' W 074°02'1019.4
2018-Feb-13 19:00N 40°35' W 074°03'816.7
2018-Feb-13 18:30N 40°43' W 073°58'4 8.0
2018-Feb-13 18:01N 40°39' W 074°02'1324.0
2018-Feb-13 17:29N 40°27' W 074°01'0 0.6
2018-Feb-13 17:00N 40°27' W 074°02'1326.6
2018-Feb-13 16:31N 40°40' W 074°03'4 7.5
2018-Feb-13 16:00N 40°42' W 073°59'815.5
2018-Feb-13 15:30N 40°35' W 074°03'1019.5
2018-Feb-13 15:00N 40°25' W 074°02'0 0.0
2018-Feb-13 14:29N 40°25' W 074°02'0 0.0
2018-Feb-13 14:00N 40°25' W 074°02'0 0.0
2018-Feb-13 13:30N 40°25' W 074°02'0 0.0
2018-Feb-13 04:25N 40°25' W 074°02'  
Track history (hours):
 
Tides and Currents Weather Stations Pressure Air Temp Water Temp Dewpoint Dewpoint Depression Visibility Wind Speed Wind Dir Waves Ship Positions

M V_whaling City Exp

Owner: Champlin's Water Taxi, Inc., Block Island, RI. More information available from US FCC via Universal Licensing System.

Last reported at 2018-Feb-23 04:16 UTC. Time now 2018-Feb-23 12:42 UTC.
Position N 40°25' W 074°02'.

; draft 3.4 m.

Type: High speed craft. MMSI: 366953970.

Date/timePositionNaut miles runAvg speedWind from/ knotsBaromVisibWave heightAir tempDewpointWater temp
2018-Feb-23 04:16N 40°25' W 074°02'2 5.8
2018-Feb-23 03:56N 40°25' W 073°60'614.1
2018-Feb-23 03:30N 40°30' W 074°02'1224.0
2018-Feb-23 03:01N 40°42' W 074°00'3 5.8
2018-Feb-23 02:30N 40°45' W 073°58'1019.5
2018-Feb-23 02:00N 40°36' W 074°03'1114.5
2018-Feb-23 01:13N 40°25' W 073°60'0 0.1
2018-Feb-23 00:58N 40°25' W 073°60'0 0.0
2018-Feb-23 00:30N 40°25' W 073°60'0 0.0
2018-Feb-23 00:00N 40°25' W 073°60'0 0.0
2018-Feb-22 23:30N 40°25' W 073°60'2 3.8
2018-Feb-22 23:00N 40°25' W 074°02'1122.0
2018-Feb-22 22:30N 40°36' W 074°03'612.8
2018-Feb-22 22:00N 40°42' W 074°00'815.6
2018-Feb-22 21:29N 40°34' W 074°03'10 5.2
2018-Feb-22 19:36N 40°25' W 073°60'210.9
2018-Feb-22 19:25N 40°25' W 074°02'1023.3
2018-Feb-22 18:59N 40°35' W 074°03'816.4
2018-Feb-22 18:31N 40°43' W 073°59'4 8.5
2018-Feb-22 18:01N 40°39' W 074°02'1324.8
2018-Feb-22 17:28N 40°26' W 074°01'4 7.6
2018-Feb-22 17:00N 40°29' W 074°02'1224.9
2018-Feb-22 16:31N 40°42' W 074°01'4 7.5
2018-Feb-22 16:01N 40°44' W 073°58'816.6
2018-Feb-22 15:30N 40°37' W 074°03'1223.2
2018-Feb-22 15:00N 40°25' W 074°02'0 0.0
2018-Feb-22 14:30N 40°25' W 074°02'0 0.0
2018-Feb-22 13:57N 40°25' W 074°02'0 0.0
2018-Feb-22 13:30N 40°25' W 074°02'0 0.0
2018-Feb-22 04:19N 40°25' W 074°02'2 5.3
2018-Feb-22 03:58N 40°25' W 073°60'613.5
2018-Feb-22 03:30N 40°30' W 074°02'1223.6
2018-Feb-22 03:00N 40°42' W 074°00'3 5.7
2018-Feb-22 02:30N 40°44' W 073°58'1121.4
2018-Feb-22 02:00N 40°34' W 074°03'1010.8
2018-Feb-22 01:05N 40°25' W 073°60'112.7
2018-Feb-22 00:59N 40°25' W 074°01'1 2.5
2018-Feb-22 00:30N 40°25' W 073°60'0 0.0
2018-Feb-22 00:00N 40°25' W 073°60'0 0.0
2018-Feb-21 23:31N 40°25' W 073°60'2 3.7
2018-Feb-21 23:00N 40°25' W 074°02'1223.6
2018-Feb-21 22:30N 40°37' W 074°03'611.4
2018-Feb-21 22:01N 40°42' W 074°00'714.5
2018-Feb-21 21:30N 40°35' W 074°02'1120.5
2018-Feb-21 20:59N 40°25' W 073°60'0 0.0
2018-Feb-21 20:30N 40°25' W 073°60'0 0.0
2018-Feb-21 19:59N 40°25' W 073°60'2 3.3
2018-Feb-21 19:30N 40°25' W 074°02'918.6
2018-Feb-21 19:00N 40°35' W 074°02'917.8
2018-Feb-21 18:31N 40°43' W 073°58'5 9.0
2018-Feb-21 18:00N 40°39' W 074°02'1223.9
2018-Feb-21 17:30N 40°27' W 074°01'3 5.4
2018-Feb-21 17:00N 40°30' W 074°02'1123.5
2018-Feb-21 16:30N 40°41' W 074°01'4 7.8
2018-Feb-21 16:01N 40°44' W 073°58'815.7
2018-Feb-21 15:30N 40°37' W 074°03'12 1.1
2018-Feb-21 04:17N 40°25' W 074°02'2 5.7
2018-Feb-21 03:58N 40°25' W 073°60'715.5
2018-Feb-21 03:30N 40°32' W 074°02'1121.7
2018-Feb-21 03:00N 40°42' W 074°00'3 6.1
2018-Feb-21 02:31N 40°45' W 073°58'1120.3
2018-Feb-21 01:59N 40°34' W 074°03'10 8.8
2018-Feb-21 00:50N 40°25' W 073°60'0 0.0
2018-Feb-21 00:29N 40°25' W 073°60'0 0.0
2018-Feb-20 23:53N 40°25' W 073°60'0 0.0
2018-Feb-20 23:30N 40°25' W 073°60'2 3.2
2018-Feb-20 22:56N 40°25' W 074°02'1225.7
2018-Feb-20 22:28N 40°37' W 074°03'511.1
2018-Feb-20 22:00N 40°42' W 074°00'714.1
2018-Feb-20 21:30N 40°35' W 074°02'1121.4
2018-Feb-20 21:00N 40°25' W 073°60'0 0.0
2018-Feb-20 20:30N 40°25' W 073°60'0 0.0
2018-Feb-20 19:59N 40°25' W 073°60'2 3.6
2018-Feb-20 19:28N 40°25' W 074°02'1022.0
2018-Feb-20 19:00N 40°35' W 074°03'816.2
2018-Feb-20 18:30N 40°43' W 073°58'4 8.3
2018-Feb-20 18:01N 40°40' W 074°03'1224.6
2018-Feb-20 17:30N 40°28' W 074°01'1 2.5
2018-Feb-20 17:01N 40°29' W 074°02'1224.8
2018-Feb-20 16:31N 40°41' W 074°02'4 8.5
2018-Feb-20 16:00N 40°44' W 073°58'816.6
2018-Feb-20 15:30N 40°37' W 074°03'1220.3
2018-Feb-20 14:56N 40°25' W 074°02'0 0.0
2018-Feb-20 14:27N 40°25' W 074°02'0 0.0
2018-Feb-19 20:21N 40°25' W 074°02'2 4.6
2018-Feb-19 19:57N 40°25' W 073°60'0 0.1
2018-Feb-19 19:29N 40°25' W 073°60'0 0.0
2018-Feb-19 18:59N 40°25' W 073°60'0 0.0
2018-Feb-19 18:30N 40°25' W 073°60'0 0.0
2018-Feb-19 18:00N 40°25' W 073°60'0 0.0
2018-Feb-19 17:29N 40°25' W 073°60'0 0.0
2018-Feb-19 17:00N 40°25' W 073°60'0 0.0
2018-Feb-19 16:29N 40°25' W 073°60'0 0.0
2018-Feb-19 16:00N 40°25' W 073°60'0 0.0
2018-Feb-19 15:30N 40°25' W 073°60'0 0.1
2018-Feb-19 15:00N 40°25' W 073°60'0 0.5
2018-Feb-19 14:29N 40°25' W 073°60'  
2018-Feb-17 04:07N 40°25' W 073°60'0 0.3
2018-Feb-17 04:00N 40°25' W 073°60'713.8
2018-Feb-17 03:30N 40°31' W 074°03'1223.4
2018-Feb-17 03:00N 40°42' W 074°00'1 2.6
2018-Feb-17 02:31N 40°42' W 073°59'1019.6
2018-Feb-17 02:00N 40°33' W 074°04'9 5.6
2018-Feb-17 00:19N 40°25' W 073°60'0 0.0
2018-Feb-16 23:52N 40°25' W 073°60'0 0.0
2018-Feb-16 23:19N 40°25' W 073°60'2 5.6
2018-Feb-16 22:57N 40°26' W 074°02'1125.6
2018-Feb-16 22:30N 40°37' W 074°03'611.1
2018-Feb-16 22:00N 40°42' W 074°00'713.9
2018-Feb-16 21:30N 40°35' W 074°02'11 6.1
2018-Feb-16 19:41N 40°25' W 073°60'2 8.4
2018-Feb-16 19:30N 40°25' W 074°02'1018.7
2018-Feb-16 18:58N 40°35' W 074°02'816.7
2018-Feb-16 18:31N 40°43' W 073°59'4 7.2
2018-Feb-16 18:01N 40°40' W 074°01'1223.7
2018-Feb-16 17:30N 40°27' W 074°01'0 0.9
2018-Feb-16 16:59N 40°28' W 074°01'1326.0
2018-Feb-16 16:30N 40°40' W 074°02'4 8.9
2018-Feb-16 16:00N 40°43' W 073°58'814.9
2018-Feb-16 15:30N 40°37' W 074°03'1122.8
2018-Feb-16 15:00N 40°25' W 074°02'0 0.0
2018-Feb-16 14:27N 40°25' W 074°02'0 0.0
2018-Feb-16 04:21N 40°25' W 074°02'2 4.5
2018-Feb-16 03:59N 40°25' W 073°60'713.7
2018-Feb-16 03:30N 40°31' W 074°02'1122.4
2018-Feb-16 03:00N 40°42' W 074°00'2 3.2
2018-Feb-16 02:31N 40°43' W 073°58'917.8
2018-Feb-16 02:00N 40°34' W 074°02'10 7.4
2018-Feb-16 00:40N 40°25' W 073°60'0 0.2
2018-Feb-16 00:30N 40°25' W 073°60'0 0.0
2018-Feb-16 00:00N 40°25' W 073°60'0 0.0
2018-Feb-15 23:30N 40°25' W 073°60'2 3.7
2018-Feb-15 23:00N 40°25' W 074°02'1224.1
2018-Feb-15 22:30N 40°37' W 074°03'510.9
2018-Feb-15 22:00N 40°42' W 074°00'916.9
2018-Feb-15 21:30N 40°34' W 074°02'918.9
2018-Feb-15 21:00N 40°25' W 073°60'0 0.0
2018-Feb-15 20:31N 40°25' W 073°60'0 0.0
2018-Feb-15 20:00N 40°25' W 073°60'1 2.9
2018-Feb-15 19:30N 40°25' W 074°01'1119.6
2018-Feb-15 18:57N 40°36' W 074°03'717.0
2018-Feb-15 18:31N 40°43' W 073°58'510.0
2018-Feb-15 18:01N 40°39' W 074°02'1222.8
2018-Feb-15 17:30N 40°27' W 074°01'0 0.9
2018-Feb-15 17:00N 40°28' W 074°01'1326.2
2018-Feb-15 16:31N 40°40' W 074°01'4 7.2
2018-Feb-15 16:01N 40°43' W 073°58'815.2
2018-Feb-15 15:30N 40°36' W 074°03'11 1.0
2018-Feb-15 04:14N 40°25' W 074°02'2 5.9
2018-Feb-15 03:55N 40°25' W 073°60'513.0
2018-Feb-15 03:30N 40°30' W 074°02'1225.3
2018-Feb-15 03:00N 40°42' W 074°00'2 3.8
2018-Feb-15 02:31N 40°43' W 073°58'1019.9
2018-Feb-15 01:59N 40°33' W 074°02'911.9
2018-Feb-15 01:15N 40°25' W 073°60'0 0.1
2018-Feb-15 00:59N 40°25' W 073°60'0 0.0
2018-Feb-15 00:29N 40°25' W 073°60'0 0.0
2018-Feb-14 23:59N 40°25' W 073°60'0 0.0
2018-Feb-14 23:29N 40°25' W 073°60'2 4.2
2018-Feb-14 22:59N 40°26' W 074°02'1124.3
2018-Feb-14 22:30N 40°38' W 074°03'510.2
2018-Feb-14 22:00N 40°42' W 074°00'1020.0
2018-Feb-14 21:30N 40°32' W 074°02'8 4.4
2018-Feb-14 19:44N 40°25' W 073°60'2 6.9
2018-Feb-14 19:30N 40°25' W 074°02'1019.5
2018-Feb-14 19:00N 40°35' W 074°02'817.1
2018-Feb-14 18:30N 40°43' W 073°58'5 9.3
2018-Feb-14 18:00N 40°39' W 074°02'1224.0
2018-Feb-14 17:30N 40°27' W 074°01'2 3.5
2018-Feb-14 17:00N 40°25' W 074°02'0 0.2
2018-Feb-14 15:44N 40°25' W 074°02'0 0.0
2018-Feb-14 15:29N 40°25' W 074°02'0 0.0
2018-Feb-14 14:57N 40°25' W 074°02'0 0.0
2018-Feb-14 14:15N 40°25' W 074°02'0 0.0
2018-Feb-14 13:52N 40°25' W 074°02'0 0.0
2018-Feb-14 13:30N 40°25' W 074°02'0 0.0
2018-Feb-14 04:25N 40°25' W 074°02'2 4.2
2018-Feb-14 03:59N 40°25' W 073°60'612.3
2018-Feb-14 03:30N 40°30' W 074°02'1224.1
2018-Feb-14 03:00N 40°42' W 074°00'1 2.8
2018-Feb-14 02:30N 40°43' W 073°59'917.1
2018-Feb-14 02:00N 40°35' W 074°02'1012.4
2018-Feb-14 01:11N 40°25' W 073°60'0 0.2
2018-Feb-14 00:59N 40°25' W 073°60'0 0.0
2018-Feb-14 00:30N 40°25' W 073°60'0 0.0
2018-Feb-14 00:00N 40°25' W 073°60'0 0.0
2018-Feb-13 23:30N 40°25' W 073°60'2 3.6
2018-Feb-13 23:00N 40°25' W 074°02'1224.1
2018-Feb-13 22:30N 40°37' W 074°03'510.6
2018-Feb-13 22:00N 40°42' W 074°00'1020.1
2018-Feb-13 21:30N 40°32' W 074°02'815.5
2018-Feb-13 21:00N 40°25' W 073°60'0 0.0
2018-Feb-13 20:30N 40°25' W 073°60'0 0.0
2018-Feb-13 20:00N 40°25' W 073°60'2 3.3
2018-Feb-13 19:30N 40°25' W 074°02'1019.4
2018-Feb-13 19:00N 40°35' W 074°03'816.7
2018-Feb-13 18:30N 40°43' W 073°58'4 8.0
2018-Feb-13 18:01N 40°39' W 074°02'1324.0
2018-Feb-13 17:29N 40°27' W 074°01'0 0.6
2018-Feb-13 17:00N 40°27' W 074°02'1326.6
2018-Feb-13 16:31N 40°40' W 074°03'4 7.5
2018-Feb-13 16:00N 40°42' W 073°59'815.5
2018-Feb-13 15:30N 40°35' W 074°03'1019.5
2018-Feb-13 15:00N 40°25' W 074°02'0 0.0
2018-Feb-13 14:29N 40°25' W 074°02'0 0.0
2018-Feb-13 14:00N 40°25' W 074°02'0 0.0
2018-Feb-13 13:30N 40°25' W 074°02'0 0.0
2018-Feb-13 04:25N 40°25' W 074°02'  

Dump ship's entire track history